• Join FlightAware (Why Join?)
  • Login
  • US Flag 
10:48AM EDT


 

Airport Tracker/Info


-or-


 

Live Flight TrackerFlight Track Log ✈ AWE3417 ✈ 18-Apr-2013 ✈ KDCA - KCMH

Flight Track Log - Related Links

Times and Time Zones

All times are in EDT time to prevent confusion due to time zone crossing. See the AWE3417 flight status page for this flight to view local times or setup timezone preferences in your user account.

Time Position Orientation Groundspeed Altitude Reporting Facility
EDT Latitude Longitude Course Direction KTS MPH feet Rate Location/Type
07:55PM 38.8000 -77.0167 274° West 178 205 2,600  Level Potomac TRACON
07:56PM 38.7667 -77.0667 229° Southwest 257 296 4,900 3,000 Climbing Potomac TRACON
07:57PM 38.9333 -77.5004 270° West  Level FlightAware Approximate
07:57PM 38.7833 -77.1500 284° West 269 310 8,300  Level Potomac TRACON
07:58PM 38.9333 -77.6257 270° West  Level FlightAware Approximate
07:58PM 38.8261 -77.3156 288° West 303 349 11,800  Level Washington Center
07:59PM 38.9333 -77.7509 270° West  Level FlightAware Approximate
07:59PM 38.8578 -77.4150 292° West 310 357 15,700  Level Washington Center
08:00PM 38.9389 -77.8760 274° West  Level FlightAware Approximate
08:00PM 38.8897 -77.5200 291° West 310 357 17,000  Level Washington Center
08:01PM 38.9253 -77.6275 293° West 322 371 17,000 420 Level Washington Center
08:02PM 38.9422 -77.7400 281° West 322 371 17,900 1,260 Climbing Washington Center
08:03PM 38.9483 -77.8550 274° West 322 371 19,600 1,080 Climbing Washington Center
08:04PM 38.9525 -77.9725 273° West 343 395 20,100 1,020 Climbing Washington Center
08:05PM 38.9558 -78.1142 272° West 376 433 21,700 1,380 Climbing Washington Center
08:06PM 38.9608 -78.2692 272° West 399 459 22,900 1,500 Climbing Washington Center
08:07PM 38.9658 -78.4108 273° West 414 476 24,700 1,380 Climbing Washington Center
08:08PM 38.9706 -78.5633 272° West 426 490 25,700 900 Climbing Washington Center
08:09PM 38.9769 -78.7183 273° West 432 497 26,600 900 Climbing Washington Center
08:10PM 38.9811 -78.8789 272° West 443 510 27,500 900 Climbing Washington Center
08:11PM 38.9850 -79.0392 272° West 443 510 28,500 840 Climbing Washington Center
08:12PM 38.9883 -79.2022 272° West 448 516 29,200 720 Climbing Washington Center
08:13PM 38.9939 -79.3628 273° West 453 521 30,000 360 Climbing Washington Center
08:14PM 38.9972 -79.5206 272° West 458 527 30,000  Level Washington Center
08:15PM 39.0000 -79.6892 271° West 463 533 30,000  Level Washington Center
08:17PM 39.0011 -79.9617 270° West 452 520 30,000  Level Indianapolis Center
08:18PM 39.0042 -80.1283 271° West 455 524 30,000  Level Indianapolis Center
08:19PM 39.0064 -80.2925 271° West 458 527 30,000  Level Indianapolis Center
08:20PM 39.0086 -80.4550 271° West 457 526 30,000 -360 Level Indianapolis Center
08:21PM 39.0500 -80.6067 289° West 464 534 29,300 -1,200 Descending Indianapolis Center
08:22PM 39.1189 -80.7431 303° West 460 529 27,600 -1,620 Descending Indianapolis Center
08:23PM 39.1822 -80.8856 300° West 463 533 26,000 -1,620 Descending Indianapolis Center
08:24PM 39.2219 -81.0286 290° West 428 493 24,400 -1,620 Descending Indianapolis Center
08:25PM 39.2708 -81.1975 291° West 421 484 22,700 -1,620 Descending Indianapolis Center
08:26PM 39.3092 -81.3361 290° West 415 478 21,100 -1,620 Descending Indianapolis Center
08:27PM 39.3475 -81.4719 290° West 408 470 19,500 -1,620 Descending Indianapolis Center
08:28PM 39.3850 -81.6056 290° West 400 460 17,900 -1,560 Descending Indianapolis Center
08:29PM 39.4208 -81.7358 290° West 389 448 16,400 -1,500 Descending Indianapolis Center
08:30PM 39.4561 -81.8589 290° West 370 426 14,900 -1,620 Descending Indianapolis Center
08:31PM 39.4867 -81.9769 289° West 364 419 13,500 -1,620 Descending Indianapolis Center
08:32PM 39.5261 -82.1186 290° West 364 419 11,800 -1,200 Descending Indianapolis Center
08:33PM 39.5583 -82.2408 289° West 358 412 11,000 -660 Descending Indianapolis Center
08:34PM 39.6164 -82.3433 306° West 360 414 10,400 -540 Descending Indianapolis Center
08:35PM 39.6983 -82.4125 327° Northwest 375 432 10,000 -300 Descending Indianapolis Center
08:36PM 39.7914 -82.4822 330° Northwest 362 417 9,900 -900 Descending Indianapolis Center
08:37PM 39.8625 -82.5367 330° Northwest 302 348 8,100 -2,760 Descending Indianapolis Center
08:38PM 39.9389 -82.6067 325° Northwest 291 335 4,200 -2,640 Descending Indianapolis Center
08:39PM 39.9742 -82.7083 294° West 267 307 2,500 -960 Descending Indianapolis Center
08:40PM 39.9897 -82.7564 293° West 212 244 2,500  Level Indianapolis Center